createdAt,value
2022-10-09T00:01:21.530Z,7.68
2022-10-09T00:03:52.193Z,8.77
2022-10-09T00:06:22.765Z,12.55
2022-10-09T00:08:50.241Z,8.40
2022-10-09T00:11:24.634Z,9.10
2022-10-09T00:13:53.441Z,8.85
2022-10-09T00:16:22.125Z,9.77
2022-10-09T00:18:50.413Z,7.63
2022-10-09T00:21:20.296Z,5.45
2022-10-09T00:23:48.514Z,9.15
2022-10-09T00:26:16.010Z,8.98
2022-10-09T00:28:43.945Z,7.95
2022-10-09T00:31:12.285Z,11.43
2022-10-09T00:33:39.895Z,7.25
2022-10-09T00:36:10.781Z,10.80
2022-10-09T00:38:39.024Z,6.15
2022-10-09T00:41:07.513Z,11.88
2022-10-09T00:43:47.516Z,8.73
2022-10-09T00:46:25.156Z,7.28
2022-10-09T00:49:24.244Z,9.52
2022-10-09T00:51:53.059Z,7.55
2022-10-09T00:54:24.734Z,7.25
2022-10-09T00:56:52.613Z,5.70
2022-10-09T00:59:20.814Z,5.07
2022-10-09T01:01:48.273Z,7.80
2022-10-09T01:04:15.776Z,6.97
2022-10-09T01:06:55.087Z,9.88
2022-10-09T01:09:38.401Z,8.38
2022-10-09T01:12:15.284Z,8.05
2022-10-09T01:14:57.552Z,10.45
2022-10-09T01:17:55.747Z,11.52
2022-10-09T01:20:31.841Z,12.82
2022-10-09T01:23:31.212Z,8.82
2022-10-09T01:26:16.949Z,9.25
2022-10-09T01:28:49.530Z,10.05
2022-10-09T01:31:18.308Z,8.68
2022-10-09T01:33:46.814Z,10.07
2022-10-09T01:36:16.530Z,11.25
2022-10-09T01:38:45.149Z,9.77
2022-10-09T01:41:12.508Z,7.05
2022-10-09T01:43:41.284Z,5.38
2022-10-09T01:46:30.592Z,4.93
2022-10-09T01:49:48.968Z,9.50
2022-10-09T01:52:21.206Z,4.18
2022-10-09T01:55:08.949Z,5.32
2022-10-09T01:57:53.275Z,3.05
2022-10-09T02:00:22.575Z,6.75
2022-10-09T02:02:53.116Z,7.28
2022-10-09T02:05:24.539Z,4.40
2022-10-09T02:07:56.770Z,3.35
2022-10-09T02:10:26.129Z,3.92
2022-10-09T02:12:59.078Z,6.03
2022-10-09T02:15:56.749Z,4.57
2022-10-09T02:18:42.600Z,4.50
2022-10-09T02:21:21.037Z,3.03
2022-10-09T02:23:51.039Z,2.72
2022-10-09T02:26:19.477Z,5.30
2022-10-09T02:28:47.439Z,6.28
2022-10-09T02:31:30.146Z,3.17
2022-10-09T02:34:03.026Z,3.65
2022-10-09T02:36:31.433Z,3.17
2022-10-09T02:38:59.129Z,4.07
2022-10-09T02:41:26.894Z,4.63
2022-10-09T02:43:54.245Z,4.28
2022-10-09T02:46:21.871Z,3.47
2022-10-09T02:48:49.221Z,3.15
2022-10-09T02:51:17.639Z,10.23
2022-10-09T02:53:45.842Z,5.05
2022-10-09T02:56:13.512Z,10.63
2022-10-09T02:58:41.184Z,3.22
2022-10-09T03:01:09.305Z,4.22
2022-10-09T03:03:36.633Z,5.30
2022-10-09T03:06:15.541Z,4.53
2022-10-09T03:08:46.009Z,10.88
2022-10-09T03:11:14.653Z,17.02
2022-10-09T03:13:42.727Z,7.68
2022-10-09T03:16:14.477Z,17.92
2022-10-09T03:18:42.292Z,14.40
2022-10-09T03:21:16.333Z,20.98
2022-10-09T03:23:44.105Z,23.23
2022-10-09T03:26:14.549Z,26.25
2022-10-09T03:28:44.768Z,19.92
2022-10-09T03:31:27.376Z,22.35
2022-10-09T03:33:59.483Z,14.73
2022-10-09T03:36:26.953Z,18.50
2022-10-09T03:38:54.241Z,14.32
2022-10-09T03:41:21.654Z,17.27
2022-10-09T03:43:49.051Z,16.42
2022-10-09T03:46:16.406Z,9.10
2022-10-09T03:48:43.710Z,11.05
2022-10-09T03:51:11.125Z,19.67
2022-10-09T03:53:38.319Z,13.82
2022-10-09T03:56:05.934Z,10.55
2022-10-09T03:58:33.217Z,13.27
2022-10-09T04:01:00.647Z,12.40
2022-10-09T04:03:28.036Z,11.40
2022-10-09T04:05:55.374Z,14.73
2022-10-09T04:08:22.719Z,15.23
2022-10-09T04:10:57.642Z,13.93
2022-10-09T04:13:24.994Z,16.02
2022-10-09T04:15:53.668Z,18.85
2022-10-09T04:18:21.551Z,11.68
2022-10-09T04:20:51.379Z,10.05
2022-10-09T04:23:20.409Z,8.25
2022-10-09T04:25:47.797Z,9.38
2022-10-09T04:28:15.153Z,10.27
2022-10-09T04:30:42.539Z,8.95
2022-10-09T04:33:12.923Z,14.70
2022-10-09T04:35:45.022Z,12.15
2022-10-09T04:38:12.747Z,15.82
2022-10-09T04:40:40.171Z,12.73
2022-10-09T04:43:07.558Z,15.07
2022-10-09T04:45:39.141Z,12.95
2022-10-09T04:48:06.461Z,12.40
2022-10-09T04:50:33.786Z,11.50
2022-10-09T04:53:01.181Z,13.93
2022-10-09T04:55:28.608Z,9.50
2022-10-09T04:57:55.975Z,7.45
2022-10-09T05:00:23.248Z,7.20
2022-10-09T05:02:50.853Z,5.78
2022-10-09T05:05:18.429Z,6.60
2022-10-09T05:07:45.985Z,9.82
2022-10-09T05:10:13.272Z,4.05
2022-10-09T05:12:40.773Z,5.50
2022-10-09T05:15:08.674Z,4.25
2022-10-09T05:17:36.147Z,3.75
2022-10-09T05:20:03.720Z,4.45
2022-10-09T05:22:31.176Z,4.18
2022-10-09T05:24:58.543Z,3.80
2022-10-09T05:27:25.862Z,5.07
2022-10-09T05:29:53.379Z,9.50
2022-10-09T05:32:20.865Z,4.72
2022-10-09T05:34:48.310Z,8.05
2022-10-09T05:37:15.675Z,4.47
2022-10-09T05:39:43.046Z,3.40
2022-10-09T05:42:10.386Z,9.65
2022-10-09T05:44:37.689Z,1.83
2022-10-09T05:47:05.061Z,4.25
2022-10-09T05:49:33.080Z,4.47
2022-10-09T05:52:04.191Z,5.13
2022-10-09T05:54:31.678Z,3.58
2022-10-09T05:56:59.194Z,5.07
2022-10-09T05:59:26.704Z,2.13
2022-10-09T06:01:55.131Z,3.38
2022-10-09T06:04:24.629Z,3.25
2022-10-09T06:06:52.545Z,3.20
2022-10-09T06:09:23.446Z,2.95
2022-10-09T06:11:51.088Z,5.00
2022-10-09T06:14:18.814Z,5.85
2022-10-09T06:16:46.339Z,5.20
2022-10-09T06:19:16.249Z,5.57
2022-10-09T06:21:44.116Z,2.83
2022-10-09T06:24:18.447Z,1.95
2022-10-09T06:26:45.762Z,2.90
2022-10-09T06:29:13.280Z,4.38
2022-10-09T06:31:40.842Z,1.83
2022-10-09T06:34:10.684Z,4.63
2022-10-09T06:36:38.045Z,5.72
2022-10-09T06:39:07.272Z,4.40
2022-10-09T06:41:35.910Z,4.20
2022-10-09T06:44:16.603Z,1.42
2022-10-09T06:46:46.123Z,4.25
2022-10-09T06:49:13.409Z,3.80
2022-10-09T06:51:40.866Z,2.78
2022-10-09T06:54:13.502Z,3.60
2022-10-09T06:56:40.814Z,0.90
2022-10-09T06:59:08.736Z,3.20
2022-10-09T07:01:36.134Z,2.53
2022-10-09T07:04:07.212Z,4.68
2022-10-09T07:06:39.896Z,2.95
2022-10-09T07:09:10.169Z,4.68
2022-10-09T07:11:43.375Z,1.05
2022-10-09T07:14:12.758Z,2.38
2022-10-09T07:16:45.324Z,2.53
2022-10-09T07:19:13.874Z,2.40
2022-10-09T07:21:43.545Z,3.78
2022-10-09T07:24:11.718Z,2.70
2022-10-09T07:26:42.413Z,2.53
2022-10-09T07:29:11.821Z,3.40
2022-10-09T07:31:39.098Z,4.82
2022-10-09T07:34:06.694Z,2.58
2022-10-09T07:36:34.068Z,3.45
2022-10-09T07:39:01.890Z,3.10
2022-10-09T07:41:30.732Z,4.28
2022-10-09T07:43:58.535Z,3.70
2022-10-09T07:46:32.171Z,2.83
2022-10-09T07:49:01.090Z,6.43
2022-10-09T07:51:29.363Z,7.57
2022-10-09T07:53:57.661Z,2.78
2022-10-09T07:56:28.247Z,1.27
2022-10-09T07:59:00.713Z,2.38
2022-10-09T08:01:29.653Z,3.25
2022-10-09T08:03:59.155Z,4.25
2022-10-09T08:06:27.267Z,6.57
2022-10-09T08:08:57.048Z,3.13
2022-10-09T08:11:26.136Z,3.25
2022-10-09T08:13:54.416Z,4.78
2022-10-09T08:16:23.194Z,4.07
2022-10-09T08:18:58.024Z,3.95
2022-10-09T08:21:28.177Z,1.67
2022-10-09T08:23:57.277Z,2.47
2022-10-09T08:26:26.087Z,1.77
2022-10-09T08:28:58.951Z,5.13
2022-10-09T08:31:27.723Z,2.78
2022-10-09T08:33:57.065Z,4.78
2022-10-09T08:36:25.089Z,4.05
2022-10-09T08:38:52.936Z,5.18
2022-10-09T08:41:28.015Z,4.32
2022-10-09T08:44:27.893Z,3.85
2022-10-09T08:47:01.394Z,6.20
2022-10-09T08:49:34.964Z,1.25
2022-10-09T08:52:16.993Z,3.63
2022-10-09T08:54:44.716Z,6.32
2022-10-09T08:57:14.618Z,4.57
2022-10-09T08:59:42.818Z,1.35
2022-10-09T09:02:29.780Z,2.92
2022-10-09T09:05:17.711Z,3.25
2022-10-09T09:08:11.166Z,7.72
2022-10-09T09:10:41.659Z,3.97
2022-10-09T09:13:11.613Z,2.65
2022-10-09T09:15:48.908Z,3.08
2022-10-09T09:18:22.150Z,2.78
2022-10-09T09:20:54.262Z,4.05
2022-10-09T09:23:32.200Z,2.13
2022-10-09T09:25:59.787Z,5.55
2022-10-09T09:28:33.946Z,9.57
2022-10-09T09:31:15.260Z,3.67
2022-10-09T09:33:50.163Z,5.10
2022-10-09T09:36:26.746Z,7.22
2022-10-09T09:39:36.210Z,5.40
2022-10-09T09:41:43.010Z,5.30
2022-10-09T09:44:12.037Z,3.65
2022-10-09T09:46:40.173Z,3.97
2022-10-09T09:49:27.347Z,4.72
2022-10-09T09:51:57.078Z,4.97
2022-10-09T09:54:30.169Z,5.70
2022-10-09T09:57:12.863Z,4.30
2022-10-09T09:59:43.378Z,6.40
2022-10-09T10:02:21.678Z,8.23
2022-10-09T10:05:00.080Z,3.45
2022-10-09T10:07:36.175Z,2.58
2022-10-09T10:10:15.315Z,7.20
2022-10-09T10:12:52.956Z,3.58
2022-10-09T10:15:30.689Z,6.50
2022-10-09T10:18:06.138Z,2.50
2022-10-09T10:20:46.091Z,5.57
2022-10-09T10:23:21.854Z,3.17
2022-10-09T10:25:50.815Z,13.93
2022-10-09T10:28:25.571Z,9.10
2022-10-09T10:30:56.725Z,4.82
2022-10-09T10:33:29.321Z,2.60
2022-10-09T10:35:58.977Z,4.03
2022-10-09T10:38:50.140Z,6.03
2022-10-09T10:41:29.286Z,6.10
2022-10-09T10:44:23.119Z,7.43
2022-10-09T10:47:02.554Z,8.20
2022-10-09T10:49:33.810Z,8.45
2022-10-09T10:52:23.160Z,7.43
2022-10-09T10:55:14.506Z,4.93
2022-10-09T10:57:51.659Z,2.58
2022-10-09T11:00:19.170Z,9.65
2022-10-09T11:03:17.695Z,4.40
2022-10-09T11:06:10.385Z,6.38
2022-10-09T11:08:49.229Z,3.85
2022-10-09T11:11:38.026Z,3.75
2022-10-09T11:14:17.920Z,6.45
2022-10-09T11:17:11.188Z,7.75
2022-10-09T11:19:43.048Z,10.35
2022-10-09T11:23:05.878Z,7.03
2022-10-09T11:25:54.744Z,3.13
2022-10-09T11:28:40.602Z,3.88
2022-10-09T11:31:41.712Z,2.60
2022-10-09T11:34:16.743Z,3.67
2022-10-09T11:36:45.346Z,6.45
2022-10-09T11:39:22.361Z,6.38
2022-10-09T11:41:53.870Z,6.30
2022-10-09T11:44:58.723Z,1.98
2022-10-09T11:47:47.052Z,4.13
2022-10-09T11:50:18.845Z,4.53
2022-10-09T11:52:58.025Z,2.67
2022-10-09T11:55:29.113Z,7.22
2022-10-09T11:58:14.942Z,6.63
2022-10-09T12:00:43.182Z,2.22
2022-10-09T12:03:35.211Z,5.97
2022-10-09T12:06:22.487Z,4.35
2022-10-09T12:09:03.803Z,2.85
2022-10-09T12:11:32.578Z,5.65
2022-10-09T12:14:06.241Z,3.95
2022-10-09T12:16:43.873Z,5.27
2022-10-09T12:19:23.399Z,2.00
2022-10-09T12:22:12.020Z,4.82
2022-10-09T12:24:42.885Z,2.08
2022-10-09T12:27:19.990Z,3.97
2022-10-09T12:29:59.971Z,2.95
2022-10-09T12:32:37.587Z,5.00
2022-10-09T12:35:16.773Z,2.25
2022-10-09T12:37:44.102Z,3.30
2022-10-09T12:40:33.383Z,3.63
2022-10-09T12:43:07.690Z,5.00
2022-10-09T12:45:44.294Z,7.05
2022-10-09T12:48:13.636Z,2.60
2022-10-09T12:50:41.385Z,5.35
2022-10-09T12:53:18.385Z,2.05
2022-10-09T12:56:00.050Z,2.50
2022-10-09T12:58:31.010Z,6.72
2022-10-09T13:01:01.523Z,3.83
2022-10-09T13:03:39.041Z,1.55
2022-10-09T13:06:15.714Z,4.32
2022-10-09T13:08:43.890Z,3.00
2022-10-09T13:11:28.649Z,3.58
2022-10-09T13:13:56.771Z,4.72
2022-10-09T13:16:24.510Z,1.17
2022-10-09T13:19:18.998Z,1.35
2022-10-09T13:21:46.212Z,6.57
2022-10-09T13:24:13.706Z,2.33
2022-10-09T13:26:43.465Z,2.28
2022-10-09T13:29:13.578Z,2.88
2022-10-09T13:31:43.593Z,3.00
2022-10-09T13:34:16.447Z,6.07
2022-10-09T13:36:43.671Z,5.18
2022-10-09T13:39:14.579Z,2.45
2022-10-09T13:41:43.580Z,4.40
2022-10-09T13:44:10.862Z,1.85
2022-10-09T13:46:38.106Z,3.50
2022-10-09T13:49:05.359Z,3.35
2022-10-09T13:51:32.806Z,1.55
2022-10-09T13:54:00.090Z,4.40
2022-10-09T13:56:27.779Z,3.63
2022-10-09T13:58:55.197Z,4.35
2022-10-09T14:01:22.571Z,5.88
2022-10-09T14:03:49.906Z,2.10
2022-10-09T14:06:17.229Z,1.83
2022-10-09T14:08:44.460Z,2.03
2022-10-09T14:11:11.695Z,2.22
2022-10-09T14:13:38.872Z,2.97
2022-10-09T14:16:07.585Z,1.42
2022-10-09T14:18:34.942Z,2.55
2022-10-09T14:21:13.882Z,2.72
2022-10-09T14:23:42.400Z,4.35
2022-10-09T14:26:09.691Z,2.92
2022-10-09T14:28:37.163Z,2.47
2022-10-09T14:31:08.309Z,2.13
2022-10-09T14:33:35.869Z,2.03
2022-10-09T14:36:08.160Z,2.97
2022-10-09T14:38:39.748Z,1.50
2022-10-09T14:41:07.968Z,2.10
2022-10-09T14:43:36.041Z,1.20
2022-10-09T14:46:12.230Z,2.55
2022-10-09T14:48:40.201Z,4.88
2022-10-09T14:51:19.734Z,2.80
2022-10-09T14:53:47.532Z,1.77
2022-10-09T14:56:24.624Z,2.97
2022-10-09T14:58:52.134Z,4.55
2022-10-09T15:01:23.142Z,1.85
2022-10-09T15:03:50.939Z,2.38
2022-10-09T15:06:20.510Z,2.35
2022-10-09T15:08:47.754Z,3.60
2022-10-09T15:11:14.960Z,4.05
2022-10-09T15:13:42.256Z,0.55
2022-10-09T15:16:12.984Z,1.38
2022-10-09T15:18:40.846Z,2.05
2022-10-09T15:21:20.337Z,0.50
2022-10-09T15:23:48.063Z,4.75
2022-10-09T15:26:15.383Z,1.77
2022-10-09T15:28:44.030Z,2.30
2022-10-09T15:31:29.478Z,1.48
2022-10-09T15:33:58.265Z,2.50
2022-10-09T15:36:25.908Z,5.95
2022-10-09T15:38:53.246Z,3.17
2022-10-09T15:41:28.614Z,1.33
2022-10-09T15:43:58.967Z,2.40
2022-10-09T15:46:26.783Z,2.70
2022-10-09T15:48:54.364Z,3.75
2022-10-09T15:51:21.992Z,2.05
2022-10-09T15:53:51.209Z,4.07
2022-10-09T15:56:23.722Z,1.55
2022-10-09T15:58:52.626Z,0.95
2022-10-09T16:01:20.800Z,1.83
2022-10-09T16:03:48.844Z,2.85
2022-10-09T16:06:21.651Z,2.35
2022-10-09T16:08:49.286Z,2.55
2022-10-09T16:11:21.633Z,3.92
2022-10-09T16:13:52.622Z,2.33
2022-10-09T16:16:22.590Z,1.48
2022-10-09T16:18:50.238Z,1.20
2022-10-09T16:21:20.902Z,1.95
2022-10-09T16:23:48.350Z,4.55
2022-10-09T16:26:19.094Z,2.70
2022-10-09T16:28:47.252Z,1.73
2022-10-09T16:31:24.623Z,2.22
2022-10-09T16:33:52.609Z,4.53
2022-10-09T16:36:20.347Z,4.90
2022-10-09T16:38:48.091Z,1.13
2022-10-09T16:41:18.857Z,2.17
2022-10-09T16:43:48.074Z,2.38
2022-10-09T16:46:26.761Z,1.88
2022-10-09T16:48:55.746Z,2.22
2022-10-09T16:51:28.285Z,2.60
2022-10-09T16:53:58.823Z,1.20
2022-10-09T16:56:31.007Z,2.95
2022-10-09T16:59:00.021Z,1.00
2022-10-09T17:01:28.136Z,1.95
2022-10-09T17:03:57.325Z,2.40
2022-10-09T17:06:26.234Z,1.70
2022-10-09T17:08:55.340Z,0.80
2022-10-09T17:11:23.321Z,1.40
2022-10-09T17:13:50.626Z,1.52
2022-10-09T17:16:21.238Z,1.90
2022-10-09T17:18:49.245Z,2.17
2022-10-09T17:21:18.089Z,3.28
2022-10-09T17:23:46.694Z,4.00
2022-10-09T17:26:19.130Z,3.65
2022-10-09T17:28:47.705Z,4.18
2022-10-09T17:31:18.165Z,5.68
2022-10-09T17:33:48.396Z,1.15
2022-10-09T17:36:18.807Z,5.13
2022-10-09T17:38:46.949Z,1.75
2022-10-09T17:41:16.919Z,4.25
2022-10-09T17:43:44.263Z,5.80
2022-10-09T17:46:14.488Z,2.35
2022-10-09T17:48:45.201Z,4.75
2022-10-09T17:51:18.500Z,2.58
2022-10-09T17:53:46.534Z,1.77
2022-10-09T17:56:14.345Z,2.10
2022-10-09T17:58:42.732Z,2.65
2022-10-09T18:01:11.498Z,2.13
2022-10-09T18:03:38.830Z,4.55
2022-10-09T18:06:08.167Z,3.13
2022-10-09T18:08:36.803Z,2.58
2022-10-09T18:11:08.372Z,3.80
2022-10-09T18:13:37.255Z,3.95
2022-10-09T18:16:09.714Z,5.10
2022-10-09T18:18:37.351Z,2.90
2022-10-09T18:21:07.617Z,3.03
2022-10-09T18:23:35.161Z,4.18
2022-10-09T18:26:15.382Z,1.88
2022-10-09T18:28:44.838Z,1.83
2022-10-09T18:31:19.396Z,2.88
2022-10-09T18:33:47.329Z,2.75
2022-10-09T18:36:19.781Z,4.07
2022-10-09T18:38:49.913Z,2.17
2022-10-09T18:41:18.922Z,2.40
2022-10-09T18:43:47.238Z,2.63
2022-10-09T18:46:21.138Z,2.92
2022-10-09T18:48:48.906Z,1.15
2022-10-09T18:51:18.411Z,4.85
2022-10-09T18:53:49.979Z,2.17
2022-10-09T18:56:19.369Z,1.40
2022-10-09T18:58:48.863Z,3.67
2022-10-09T19:01:16.261Z,1.67
2022-10-09T19:03:46.082Z,2.50
2022-10-09T19:06:17.139Z,2.53
2022-10-09T19:08:44.554Z,5.65
2022-10-09T19:11:14.596Z,5.75
2022-10-09T19:13:42.830Z,7.22
2022-10-09T19:16:10.195Z,6.80
2022-10-09T19:18:38.061Z,9.93
2022-10-09T19:21:06.087Z,8.15
2022-10-09T19:23:33.362Z,8.27
2022-10-09T19:26:00.806Z,4.82
2022-10-09T19:28:37.715Z,3.90
2022-10-09T19:31:07.354Z,5.55
2022-10-09T19:33:35.591Z,6.63
2022-10-09T19:36:02.950Z,7.05
2022-10-09T19:38:31.055Z,2.35
2022-10-09T19:41:07.455Z,2.90
2022-10-09T19:43:34.941Z,5.63
2022-10-09T19:46:14.752Z,2.70
2022-10-09T19:48:42.176Z,2.42
2022-10-09T19:51:18.086Z,3.92
2022-10-09T19:53:45.782Z,5.82
2022-10-09T19:56:16.285Z,2.45
2022-10-09T19:58:45.686Z,5.32
2022-10-09T20:01:15.138Z,6.32
2022-10-09T20:03:43.020Z,4.70
2022-10-09T20:06:11.430Z,2.67
2022-10-09T20:08:40.365Z,1.92
2022-10-09T20:11:08.787Z,4.95
2022-10-09T20:13:37.960Z,5.97
2022-10-09T20:16:09.030Z,6.53
2022-10-09T20:18:39.444Z,5.15
2022-10-09T20:21:07.437Z,6.43
2022-10-09T20:23:34.827Z,5.18
2022-10-09T20:26:05.312Z,5.75
2022-10-09T20:28:35.071Z,6.90
2022-10-09T20:31:07.992Z,7.20
2022-10-09T20:33:37.036Z,5.22
2022-10-09T20:36:06.220Z,4.38
2022-10-09T20:38:34.189Z,3.88
2022-10-09T20:41:07.601Z,4.95
2022-10-09T20:43:35.847Z,4.78
2022-10-09T20:46:14.851Z,3.53
2022-10-09T20:48:46.133Z,5.25
2022-10-09T20:51:13.688Z,5.65
2022-10-09T20:53:41.422Z,5.93
2022-10-09T20:56:11.497Z,3.55
2022-10-09T20:58:39.825Z,6.18
2022-10-09T21:01:08.492Z,5.50
2022-10-09T21:03:37.452Z,8.52
2022-10-09T21:06:07.362Z,4.65
2022-10-09T21:08:35.534Z,5.45
2022-10-09T21:11:06.498Z,6.70
2022-10-09T21:13:34.741Z,8.02
2022-10-09T21:16:05.646Z,4.32
2022-10-09T21:18:33.403Z,8.18
2022-10-09T21:21:09.765Z,5.03
2022-10-09T21:23:37.638Z,3.33
2022-10-09T21:26:05.277Z,7.85
2022-10-09T21:28:32.742Z,5.95
2022-10-09T21:31:00.135Z,4.47
2022-10-09T21:33:27.571Z,6.85
2022-10-09T21:35:55.524Z,4.60
2022-10-09T21:38:23.927Z,3.40
2022-10-09T21:40:51.413Z,5.63
2022-10-09T21:43:19.335Z,4.97
2022-10-09T21:45:50.520Z,5.05
2022-10-09T21:48:18.052Z,4.47
2022-10-09T21:50:45.675Z,4.10
2022-10-09T21:53:13.132Z,7.95
2022-10-09T21:55:40.836Z,9.10
2022-10-09T21:58:08.318Z,5.93
2022-10-09T22:00:36.038Z,5.38
2022-10-09T22:03:03.675Z,3.95
2022-10-09T22:05:31.098Z,6.03
2022-10-09T22:07:58.504Z,5.43
2022-10-09T22:10:25.886Z,6.03
2022-10-09T22:12:53.475Z,5.13
2022-10-09T22:15:21.045Z,9.30
2022-10-09T22:17:48.448Z,5.30
2022-10-09T22:20:15.815Z,5.07
2022-10-09T22:22:43.111Z,6.13
2022-10-09T22:25:10.661Z,6.82
2022-10-09T22:27:38.112Z,10.25
2022-10-09T22:30:06.035Z,6.13
2022-10-09T22:32:33.494Z,5.90
2022-10-09T22:35:00.805Z,6.97
2022-10-09T22:37:28.344Z,11.30
2022-10-09T22:39:55.689Z,8.52
2022-10-09T22:42:23.013Z,4.65
2022-10-09T22:44:50.308Z,8.55
2022-10-09T22:47:17.666Z,9.63
2022-10-09T22:49:45.187Z,8.45
2022-10-09T22:52:12.586Z,4.05
2022-10-09T22:54:39.881Z,5.78
2022-10-09T22:57:07.203Z,5.95
2022-10-09T22:59:34.706Z,7.28
2022-10-09T23:02:02.458Z,6.43
2022-10-09T23:04:29.905Z,10.32
2022-10-09T23:06:59.016Z,7.78
2022-10-09T23:09:31.357Z,5.28
2022-10-09T23:12:00.029Z,7.75
2022-10-09T23:14:27.941Z,5.43
2022-10-09T23:16:55.354Z,6.03
2022-10-09T23:19:22.865Z,9.65
2022-10-09T23:21:50.322Z,6.70
2022-10-09T23:24:18.110Z,4.05
2022-10-09T23:26:46.884Z,7.22
2022-10-09T23:29:17.486Z,7.05
2022-10-09T23:31:45.772Z,7.20
2022-10-09T23:34:13.437Z,7.32
2022-10-09T23:36:42.184Z,6.38
2022-10-09T23:39:09.941Z,4.75
2022-10-09T23:41:38.372Z,7.68
2022-10-09T23:44:05.756Z,5.05
2022-10-09T23:46:34.016Z,5.60
2022-10-09T23:49:01.753Z,6.05
2022-10-09T23:51:29.439Z,6.07
2022-10-09T23:53:58.067Z,9.57
2022-10-09T23:56:31.880Z,4.57
2022-10-09T23:59:01.117Z,6.65
